createdAt,value
2019-05-19T00:02:08.148Z,10.80
2019-05-19T00:04:36.567Z,10.70
2019-05-19T00:07:04.991Z,10.60
2019-05-19T00:09:33.400Z,10.60
2019-05-19T00:12:01.820Z,10.60
2019-05-19T00:14:30.229Z,10.60
2019-05-19T00:16:59.987Z,10.50
2019-05-19T00:19:28.418Z,10.40
2019-05-19T00:21:56.872Z,10.30
2019-05-19T00:24:25.303Z,10.30
2019-05-19T00:26:53.748Z,10.30
2019-05-19T00:29:22.249Z,10.30
2019-05-19T00:31:50.748Z,10.30
2019-05-19T00:34:19.173Z,10.30
2019-05-19T00:36:47.604Z,10.10
2019-05-19T00:39:16.037Z,10.10
2019-05-19T00:41:44.463Z,10.10
2019-05-19T00:44:12.889Z,9.90
2019-05-19T00:46:41.292Z,9.90
2019-05-19T00:49:09.720Z,9.80
2019-05-19T00:51:38.683Z,9.70
2019-05-19T00:54:07.096Z,9.70
2019-05-19T00:56:35.772Z,9.70
2019-05-19T00:59:04.992Z,9.70
2019-05-19T01:01:33.426Z,9.80
2019-05-19T01:04:01.920Z,9.80
2019-05-19T01:06:30.397Z,9.80
2019-05-19T01:08:58.864Z,9.80
2019-05-19T01:11:27.299Z,9.80
2019-05-19T01:13:55.716Z,9.80
2019-05-19T01:16:24.140Z,9.80
2019-05-19T01:18:52.568Z,9.60
2019-05-19T01:21:21.528Z,9.50
2019-05-19T01:23:49.951Z,9.50
2019-05-19T01:26:18.368Z,9.50
2019-05-19T01:28:46.796Z,9.50
2019-05-19T01:31:15.280Z,9.60
2019-05-19T01:33:43.710Z,9.60
2019-05-19T01:36:12.133Z,9.60
2019-05-19T01:38:40.573Z,9.60
2019-05-19T01:41:08.989Z,9.60
2019-05-19T01:43:37.427Z,9.50
2019-05-19T01:46:05.836Z,9.50
2019-05-19T01:48:34.275Z,9.50
2019-05-19T01:51:02.760Z,9.50
2019-05-19T01:53:31.197Z,9.40
2019-05-19T01:55:59.606Z,9.40
2019-05-19T01:58:28.042Z,9.30
2019-05-19T02:00:56.456Z,9.30
2019-05-19T02:03:24.874Z,9.20
2019-05-19T02:05:53.291Z,9.20
2019-05-19T02:08:21.692Z,9.20
2019-05-19T02:10:50.127Z,9.20
2019-05-19T02:13:18.587Z,9.20
2019-05-19T02:15:47.137Z,9.20
2019-05-19T02:18:15.604Z,9.20
2019-05-19T02:20:45.260Z,9.30
2019-05-19T02:23:13.666Z,9.30
2019-05-19T02:25:42.080Z,9.30
2019-05-19T02:28:10.497Z,9.30
2019-05-19T02:30:38.978Z,9.30
2019-05-19T02:33:07.396Z,9.30
2019-05-19T02:35:35.801Z,9.40
2019-05-19T02:38:04.233Z,9.50
2019-05-19T02:40:33.773Z,9.50
2019-05-19T02:43:03.225Z,9.60
2019-05-19T02:45:34.103Z,9.60
2019-05-19T02:48:03.464Z,9.70
2019-05-19T02:50:50.546Z,9.70
2019-05-19T02:53:02.979Z,9.70
2019-05-19T02:55:32.262Z,9.80
2019-05-19T02:58:02.704Z,9.80
2019-05-19T03:00:40.462Z,9.80
2019-05-19T03:03:08.962Z,9.80
2019-05-19T03:05:38.073Z,9.90
2019-05-19T03:08:06.630Z,9.90
2019-05-19T03:10:35.096Z,9.90
2019-05-19T03:13:03.528Z,9.90
2019-05-19T03:15:31.937Z,9.90
2019-05-19T03:18:00.356Z,9.90
2019-05-19T03:20:28.777Z,9.90
2019-05-19T03:22:57.177Z,9.90
2019-05-19T03:25:25.665Z,10.00
2019-05-19T03:27:54.066Z,10.00
2019-05-19T03:30:30.272Z,10.00
2019-05-19T03:33:06.069Z,10.00
2019-05-19T03:35:34.486Z,10.00
2019-05-19T03:38:03.144Z,10.20
2019-05-19T03:40:31.557Z,10.10
2019-05-19T03:42:59.972Z,10.20
2019-05-19T03:45:28.409Z,10.30
2019-05-19T03:47:56.813Z,10.30
2019-05-19T03:50:25.306Z,10.30
2019-05-19T03:52:53.728Z,10.40
2019-05-19T03:55:22.138Z,10.40
2019-05-19T03:57:50.554Z,10.50
2019-05-19T04:00:19.299Z,10.60
2019-05-19T04:02:47.725Z,10.60
2019-05-19T04:05:16.149Z,10.70
2019-05-19T04:07:44.581Z,10.70
2019-05-19T04:10:13.243Z,10.80
2019-05-19T04:12:41.663Z,11.00
2019-05-19T04:15:10.222Z,11.20
2019-05-19T04:17:38.665Z,11.30
2019-05-19T04:20:07.683Z,11.40
2019-05-19T04:22:36.160Z,11.70
2019-05-19T04:25:05.444Z,11.80
2019-05-19T04:27:33.929Z,12.00
2019-05-19T04:30:02.439Z,12.10
2019-05-19T04:32:30.897Z,12.40
2019-05-19T04:34:59.308Z,12.50
2019-05-19T04:37:27.799Z,12.50
2019-05-19T04:39:56.223Z,12.40
2019-05-19T04:42:24.708Z,12.50
2019-05-19T04:44:53.124Z,12.70
2019-05-19T04:47:21.611Z,13.00
2019-05-19T04:49:50.027Z,13.10
2019-05-19T04:52:18.448Z,13.20
2019-05-19T04:54:46.856Z,13.30
2019-05-19T04:57:15.276Z,13.40
2019-05-19T04:59:43.710Z,13.60
2019-05-19T05:02:12.128Z,13.60
2019-05-19T05:04:40.535Z,13.50
2019-05-19T05:07:08.943Z,13.60
2019-05-19T05:09:37.353Z,13.60
2019-05-19T05:12:05.787Z,13.60
2019-05-19T05:14:34.187Z,13.60
2019-05-19T05:17:02.599Z,13.60
2019-05-19T05:19:31.011Z,13.50
2019-05-19T05:21:59.431Z,13.50
2019-05-19T05:24:28.632Z,13.50
2019-05-19T05:26:57.241Z,13.30
2019-05-19T05:29:25.671Z,13.20
2019-05-19T05:31:54.074Z,13.10
2019-05-19T05:34:22.501Z,13.10
2019-05-19T05:36:50.939Z,13.10
2019-05-19T05:39:19.424Z,13.10
2019-05-19T05:41:47.919Z,13.30
2019-05-19T05:44:16.316Z,13.40
2019-05-19T05:46:44.736Z,13.50
2019-05-19T05:49:13.149Z,13.60
2019-05-19T05:51:41.571Z,13.70
2019-05-19T05:54:09.981Z,13.80
2019-05-19T05:56:38.404Z,13.80
2019-05-19T05:59:06.818Z,13.60
2019-05-19T06:01:35.227Z,13.60
2019-05-19T06:04:03.988Z,13.60
2019-05-19T06:06:32.560Z,13.70
2019-05-19T06:09:00.976Z,13.70
2019-05-19T06:11:29.384Z,13.70
2019-05-19T06:13:57.809Z,13.80
2019-05-19T06:16:26.213Z,13.90
2019-05-19T06:18:56.797Z,14.10
2019-05-19T06:21:24.775Z,14.20
2019-05-19T06:23:53.196Z,14.30
2019-05-19T06:26:21.673Z,14.30
2019-05-19T06:28:50.127Z,14.30
2019-05-19T06:31:18.544Z,14.40
2019-05-19T06:33:46.954Z,14.50
2019-05-19T06:36:15.384Z,14.50
2019-05-19T06:38:43.799Z,14.60
2019-05-19T06:41:12.288Z,14.70
2019-05-19T06:43:40.712Z,14.80
2019-05-19T06:46:09.137Z,14.90
2019-05-19T06:48:37.604Z,14.90
2019-05-19T06:51:06.029Z,14.90
2019-05-19T06:53:34.430Z,14.90
2019-05-19T06:56:02.856Z,14.90
2019-05-19T06:58:31.279Z,15.00
2019-05-19T07:00:59.773Z,15.10
2019-05-19T07:03:28.182Z,15.20
2019-05-19T07:05:56.668Z,15.30
2019-05-19T07:08:25.085Z,15.30
2019-05-19T07:10:53.497Z,15.20
2019-05-19T07:13:22.000Z,15.00
2019-05-19T07:15:50.415Z,15.10
2019-05-19T07:18:18.851Z,15.10
2019-05-19T07:20:47.327Z,15.20
2019-05-19T07:23:27.424Z,15.30
2019-05-19T07:25:45.915Z,15.30
2019-05-19T07:28:14.410Z,15.20
2019-05-19T07:30:42.827Z,15.30
2019-05-19T07:33:11.253Z,15.20
2019-05-19T07:35:39.682Z,15.20
2019-05-19T07:38:08.091Z,15.20
2019-05-19T07:40:36.514Z,15.30
2019-05-19T07:43:04.930Z,15.40
2019-05-19T07:45:33.348Z,15.50
2019-05-19T07:48:01.756Z,15.50
2019-05-19T07:50:30.192Z,15.60
2019-05-19T07:52:58.613Z,15.70
2019-05-19T07:55:27.093Z,15.80
2019-05-19T07:57:55.516Z,15.90
2019-05-19T08:00:24.002Z,15.90
2019-05-19T08:02:52.420Z,15.80
2019-05-19T08:05:20.847Z,15.90
2019-05-19T08:07:49.288Z,16.00
2019-05-19T08:10:17.900Z,16.20
2019-05-19T08:12:46.319Z,16.20
2019-05-19T08:15:14.756Z,16.30
2019-05-19T08:17:43.172Z,16.40
2019-05-19T08:20:11.812Z,16.40
2019-05-19T08:22:40.309Z,16.40
2019-05-19T08:25:09.093Z,16.50
2019-05-19T08:27:37.550Z,16.40
2019-05-19T08:30:06.997Z,16.60
2019-05-19T08:32:35.444Z,16.70
2019-05-19T08:35:04.630Z,16.80
2019-05-19T08:37:33.031Z,16.90
2019-05-19T08:40:01.456Z,17.00
2019-05-19T08:42:29.856Z,17.10
2019-05-19T08:44:58.274Z,17.20
2019-05-19T08:47:26.759Z,17.30
2019-05-19T08:49:55.180Z,17.30
2019-05-19T08:52:23.587Z,17.30
2019-05-19T08:54:52.477Z,17.20
2019-05-19T08:57:20.907Z,17.30
2019-05-19T08:59:49.547Z,17.40
2019-05-19T09:02:18.023Z,17.40
2019-05-19T09:04:46.432Z,17.60
2019-05-19T09:07:14.852Z,17.70
2019-05-19T09:09:43.260Z,17.80
2019-05-19T09:12:11.690Z,18.00
2019-05-19T09:14:40.108Z,18.10
2019-05-19T09:17:08.519Z,18.10
2019-05-19T09:19:36.924Z,18.00
2019-05-19T09:22:05.425Z,18.10
2019-05-19T09:24:37.187Z,18.00
2019-05-19T09:27:04.135Z,18.00
2019-05-19T09:29:34.127Z,18.10
2019-05-19T09:32:02.532Z,18.20
2019-05-19T09:34:30.944Z,18.20
2019-05-19T09:36:59.355Z,18.20
2019-05-19T09:39:27.771Z,18.40
2019-05-19T09:41:56.187Z,18.60
2019-05-19T09:44:24.620Z,18.80
2019-05-19T09:46:53.027Z,18.80
2019-05-19T09:49:23.108Z,18.70
2019-05-19T09:51:51.532Z,18.70
2019-05-19T09:54:19.947Z,18.80
2019-05-19T09:56:48.359Z,19.00
2019-05-19T09:59:16.781Z,19.20
2019-05-19T10:01:45.195Z,19.20
2019-05-19T10:04:13.623Z,19.30
2019-05-19T10:06:42.079Z,19.10
2019-05-19T10:09:15.595Z,18.90
2019-05-19T10:12:01.832Z,18.90
2019-05-19T10:14:30.362Z,19.00
2019-05-19T10:16:58.772Z,19.10
2019-05-19T10:19:27.180Z,19.30
2019-05-19T10:21:55.679Z,19.50
2019-05-19T10:24:24.099Z,19.80
2019-05-19T10:26:52.747Z,19.90
2019-05-19T10:29:21.233Z,20.00
2019-05-19T10:31:49.719Z,20.00
2019-05-19T10:34:18.676Z,20.10
2019-05-19T10:36:47.537Z,20.20
2019-05-19T10:39:15.932Z,20.10
2019-05-19T10:41:44.345Z,19.90
2019-05-19T10:44:12.763Z,20.00
2019-05-19T10:46:41.183Z,20.00
2019-05-19T10:49:09.612Z,19.90
2019-05-19T10:51:38.028Z,20.00
2019-05-19T10:54:06.503Z,20.20
2019-05-19T10:56:34.987Z,20.50
2019-05-19T10:59:03.524Z,20.50
2019-05-19T11:01:31.934Z,20.50
2019-05-19T11:04:00.372Z,20.50
2019-05-19T11:06:28.772Z,20.30
2019-05-19T11:08:57.184Z,20.00
2019-05-19T11:11:25.588Z,20.10
2019-05-19T11:13:54.005Z,20.20
2019-05-19T11:16:22.434Z,20.30
2019-05-19T11:18:50.921Z,20.50
2019-05-19T11:21:19.327Z,20.90
2019-05-19T11:23:47.748Z,21.20
2019-05-19T11:26:16.171Z,21.10
2019-05-19T11:28:44.596Z,20.90
2019-05-19T11:31:12.996Z,20.70
2019-05-19T11:33:41.431Z,20.70
2019-05-19T11:36:09.903Z,20.80
2019-05-19T11:38:38.316Z,21.00
2019-05-19T11:41:06.748Z,21.20
2019-05-19T11:43:35.169Z,21.30
2019-05-19T11:46:05.744Z,21.30
2019-05-19T11:48:34.217Z,21.10
2019-05-19T11:51:02.721Z,21.00
2019-05-19T11:53:31.130Z,21.20
2019-05-19T11:56:07.173Z,21.10
2019-05-19T11:58:31.733Z,21.00
2019-05-19T12:01:00.196Z,21.20
2019-05-19T12:03:28.607Z,21.10
2019-05-19T12:05:57.019Z,21.30
2019-05-19T12:08:25.434Z,21.30
2019-05-19T12:10:53.871Z,21.30
2019-05-19T12:13:22.309Z,21.30
2019-05-19T12:15:50.788Z,21.30
2019-05-19T12:18:19.277Z,21.20
2019-05-19T12:20:47.691Z,21.20
2019-05-19T12:23:16.107Z,21.30
2019-05-19T12:25:44.618Z,21.40
2019-05-19T12:28:13.088Z,21.60
2019-05-19T12:30:41.669Z,21.80
2019-05-19T12:33:10.273Z,22.00
2019-05-19T12:35:38.762Z,22.30
2019-05-19T12:38:07.176Z,22.30
2019-05-19T12:40:35.718Z,22.30
2019-05-19T12:43:04.205Z,22.10
2019-05-19T12:45:32.716Z,22.00
2019-05-19T12:48:01.230Z,22.20
2019-05-19T12:50:29.716Z,22.30
2019-05-19T12:52:58.184Z,22.30
2019-05-19T12:55:26.592Z,22.30
2019-05-19T12:57:55.072Z,22.10
2019-05-19T13:00:23.560Z,22.00
2019-05-19T13:02:51.978Z,22.20
2019-05-19T13:05:20.456Z,22.40
2019-05-19T13:07:51.883Z,22.20
2019-05-19T13:10:20.304Z,22.40
2019-05-19T13:12:48.720Z,22.20
2019-05-19T13:15:17.385Z,21.90
2019-05-19T13:17:45.875Z,21.90
2019-05-19T13:20:14.707Z,22.00
2019-05-19T13:22:43.234Z,22.10
2019-05-19T13:25:11.816Z,22.10
2019-05-19T13:27:40.242Z,21.90
2019-05-19T13:30:09.625Z,22.00
2019-05-19T13:32:38.042Z,22.00
2019-05-19T13:35:07.295Z,22.20
2019-05-19T13:37:39.042Z,22.00
2019-05-19T13:40:07.967Z,22.20
2019-05-19T13:42:36.458Z,21.90
2019-05-19T13:45:06.538Z,21.90
2019-05-19T13:47:35.000Z,22.00
2019-05-19T13:50:05.053Z,22.40
2019-05-19T13:52:33.596Z,22.30
2019-05-19T13:55:02.083Z,22.20
2019-05-19T13:57:30.501Z,22.30
2019-05-19T13:59:58.917Z,22.20
2019-05-19T14:02:27.322Z,22.30
2019-05-19T14:04:55.744Z,22.20
2019-05-19T14:07:24.151Z,22.40
2019-05-19T14:09:52.579Z,22.50
2019-05-19T14:12:20.991Z,22.40
2019-05-19T14:14:49.436Z,22.40
2019-05-19T14:17:17.951Z,22.30
2019-05-19T14:19:46.464Z,22.40
2019-05-19T14:22:14.871Z,22.40
2019-05-19T14:24:43.295Z,22.40
2019-05-19T14:27:14.205Z,22.70
2019-05-19T14:29:41.833Z,22.70
2019-05-19T14:32:10.251Z,22.50
2019-05-19T14:34:38.663Z,22.70
2019-05-19T14:37:07.089Z,22.80
2019-05-19T14:39:35.598Z,22.60
2019-05-19T14:42:05.691Z,22.60
2019-05-19T14:44:34.110Z,22.60
2019-05-19T14:47:02.593Z,22.70
2019-05-19T14:49:31.003Z,22.90
2019-05-19T14:51:59.422Z,22.80
2019-05-19T14:54:27.869Z,22.90
2019-05-19T14:56:56.319Z,22.90
2019-05-19T14:59:24.724Z,22.80
2019-05-19T15:01:53.191Z,22.50
2019-05-19T15:04:21.651Z,22.40
2019-05-19T15:06:50.059Z,22.40
2019-05-19T15:09:18.473Z,22.20
2019-05-19T15:11:46.883Z,22.10
2019-05-19T15:14:15.299Z,22.10
2019-05-19T15:16:43.710Z,22.00
2019-05-19T15:19:12.133Z,22.10
2019-05-19T15:21:40.539Z,22.30
2019-05-19T15:24:08.962Z,22.40
2019-05-19T15:26:37.383Z,22.20
2019-05-19T15:29:05.814Z,22.10
2019-05-19T15:31:34.231Z,22.00
2019-05-19T15:34:02.701Z,22.00
2019-05-19T15:36:31.113Z,22.10
2019-05-19T15:38:59.538Z,22.10
2019-05-19T15:41:27.973Z,22.10
2019-05-19T15:43:56.512Z,22.10
2019-05-19T15:46:24.978Z,22.10
2019-05-19T15:48:53.392Z,22.20
2019-05-19T15:51:28.588Z,22.30
2019-05-19T15:53:51.978Z,22.40
2019-05-19T15:56:20.399Z,22.50
2019-05-19T15:58:48.816Z,22.60
2019-05-19T16:01:17.245Z,22.70
2019-05-19T16:03:45.665Z,22.80
2019-05-19T16:06:14.101Z,23.00
2019-05-19T16:08:43.057Z,23.10
2019-05-19T16:11:11.533Z,23.40
2019-05-19T16:13:39.946Z,23.50
2019-05-19T16:16:08.364Z,23.50
2019-05-19T16:18:36.776Z,23.40
2019-05-19T16:21:05.200Z,23.20
2019-05-19T16:23:33.629Z,23.10
2019-05-19T16:26:02.045Z,23.10
2019-05-19T16:28:31.210Z,23.00
2019-05-19T16:30:59.715Z,22.90
2019-05-19T16:33:28.148Z,22.80
2019-05-19T16:35:56.560Z,22.80
2019-05-19T16:38:24.975Z,22.80
2019-05-19T16:40:53.463Z,22.80
2019-05-19T16:43:21.879Z,22.70
2019-05-19T16:45:50.287Z,22.50
2019-05-19T16:48:18.710Z,22.50
2019-05-19T16:50:47.119Z,22.40
2019-05-19T16:53:15.540Z,22.40
2019-05-19T16:55:43.951Z,22.40
2019-05-19T16:58:21.083Z,22.40
2019-05-19T17:00:42.881Z,22.40
2019-05-19T17:03:11.299Z,22.30
2019-05-19T17:05:39.720Z,22.20
2019-05-19T17:08:08.276Z,22.10
2019-05-19T17:10:36.687Z,22.00
2019-05-19T17:13:05.108Z,22.10
2019-05-19T17:15:33.528Z,22.00
2019-05-19T17:18:01.947Z,21.90
2019-05-19T17:20:31.124Z,21.80
2019-05-19T17:22:59.681Z,21.70
2019-05-19T17:25:28.172Z,21.60
2019-05-19T17:27:59.591Z,21.50
2019-05-19T17:30:26.966Z,21.30
2019-05-19T17:32:55.374Z,21.10
2019-05-19T17:35:23.805Z,20.80
2019-05-19T17:37:52.241Z,20.70
2019-05-19T17:40:20.912Z,20.50
2019-05-19T17:42:49.322Z,20.40
2019-05-19T17:45:18.478Z,20.20
2019-05-19T17:47:46.898Z,19.90
2019-05-19T17:50:17.123Z,19.70
2019-05-19T17:52:45.544Z,19.50
2019-05-19T17:55:14.092Z,19.30
2019-05-19T17:57:44.043Z,19.10
2019-05-19T18:00:12.512Z,18.90
2019-05-19T18:02:42.208Z,18.80
2019-05-19T18:05:10.763Z,18.70
2019-05-19T18:07:39.193Z,18.50
2019-05-19T18:10:08.315Z,18.40
2019-05-19T18:12:36.738Z,18.30
2019-05-19T18:15:06.694Z,18.20
2019-05-19T18:17:35.103Z,18.20
2019-05-19T18:20:05.853Z,18.10
2019-05-19T18:22:34.268Z,18.00
2019-05-19T18:25:03.053Z,17.80
2019-05-19T18:27:31.483Z,17.70
2019-05-19T18:29:59.887Z,17.70
2019-05-19T18:32:28.305Z,17.60
2019-05-19T18:34:56.724Z,17.60
2019-05-19T18:37:25.154Z,17.60
2019-05-19T18:39:53.631Z,17.40
2019-05-19T18:42:22.043Z,17.30
2019-05-19T18:44:50.461Z,17.20
2019-05-19T18:47:18.872Z,17.20
2019-05-19T18:49:47.298Z,17.00
2019-05-19T18:52:15.693Z,17.00
2019-05-19T18:54:44.115Z,16.90
2019-05-19T18:57:12.520Z,16.80
2019-05-19T18:59:47.491Z,16.70
2019-05-19T19:02:11.059Z,16.70
2019-05-19T19:04:39.548Z,16.70
2019-05-19T19:07:07.955Z,16.60
2019-05-19T19:09:36.369Z,16.60
2019-05-19T19:12:04.779Z,16.60
2019-05-19T19:14:33.189Z,16.60
2019-05-19T19:17:01.699Z,16.50
2019-05-19T19:19:30.096Z,16.40
2019-05-19T19:21:58.524Z,16.40
2019-05-19T19:24:26.923Z,16.40
2019-05-19T19:26:55.340Z,16.30
2019-05-19T19:29:23.752Z,16.30
2019-05-19T19:31:52.168Z,16.20
2019-05-19T19:34:20.579Z,16.10
2019-05-19T19:36:48.995Z,15.90
2019-05-19T19:39:17.403Z,15.70
2019-05-19T19:41:45.808Z,15.40
2019-05-19T19:44:14.228Z,15.20
2019-05-19T19:46:42.636Z,15.10
2019-05-19T19:49:11.048Z,15.00
2019-05-19T19:51:39.461Z,14.80
2019-05-19T19:54:07.865Z,14.50
2019-05-19T19:56:36.281Z,14.30
2019-05-19T19:59:04.693Z,14.20
2019-05-19T20:01:33.108Z,14.10
2019-05-19T20:04:01.515Z,14.00
2019-05-19T20:06:29.935Z,14.00
2019-05-19T20:08:58.385Z,14.00
2019-05-19T20:11:26.832Z,14.00
2019-05-19T20:13:55.240Z,14.00
2019-05-19T20:16:23.648Z,13.90
2019-05-19T20:18:52.060Z,13.90
2019-05-19T20:21:20.478Z,13.90
2019-05-19T20:23:48.879Z,14.00
2019-05-19T20:26:17.310Z,14.00
2019-05-19T20:28:45.716Z,14.10
2019-05-19T20:31:14.972Z,14.00
2019-05-19T20:33:43.472Z,13.90
2019-05-19T20:36:11.924Z,13.70
2019-05-19T20:38:40.344Z,13.70
2019-05-19T20:41:08.746Z,13.70
2019-05-19T20:43:37.197Z,13.70
2019-05-19T20:46:05.663Z,13.70
2019-05-19T20:48:34.083Z,13.70
2019-05-19T20:51:02.565Z,13.60
2019-05-19T20:53:31.028Z,13.50
2019-05-19T20:55:59.475Z,13.50
2019-05-19T20:58:27.874Z,13.50
2019-05-19T21:00:56.293Z,13.50
2019-05-19T21:03:24.707Z,13.50
2019-05-19T21:05:53.121Z,13.60
2019-05-19T21:08:21.524Z,13.70
2019-05-19T21:10:49.938Z,13.70
2019-05-19T21:13:18.351Z,13.80
2019-05-19T21:15:46.772Z,13.80
2019-05-19T21:18:15.183Z,13.80
2019-05-19T21:20:43.728Z,13.80
2019-05-19T21:23:12.143Z,13.80
2019-05-19T21:25:40.584Z,13.90
2019-05-19T21:28:09.038Z,13.90
2019-05-19T21:30:37.441Z,13.80
2019-05-19T21:33:05.861Z,13.90
2019-05-19T21:35:34.535Z,13.80
2019-05-19T21:38:03.019Z,13.90
2019-05-19T21:40:31.439Z,13.90
2019-05-19T21:42:59.859Z,13.90
2019-05-19T21:45:28.335Z,13.90
2019-05-19T21:47:56.758Z,13.90
2019-05-19T21:50:25.177Z,13.90
2019-05-19T21:52:53.661Z,13.90
2019-05-19T21:55:22.064Z,13.90
2019-05-19T21:57:50.484Z,13.90
2019-05-19T22:00:21.264Z,13.80
2019-05-19T22:02:49.725Z,13.80
2019-05-19T22:05:18.272Z,13.70
2019-05-19T22:07:53.931Z,13.70
2019-05-19T22:10:22.371Z,13.70
2019-05-19T22:12:50.784Z,13.60
2019-05-19T22:15:19.183Z,13.60
2019-05-19T22:17:47.587Z,13.50
2019-05-19T22:20:16.081Z,13.40
2019-05-19T22:22:44.562Z,13.40
2019-05-19T22:25:13.149Z,13.40
2019-05-19T22:27:41.560Z,13.30
2019-05-19T22:30:10.643Z,13.20
2019-05-19T22:32:39.059Z,13.20
2019-05-19T22:35:09.081Z,13.20
2019-05-19T22:37:37.491Z,13.20
2019-05-19T22:40:06.607Z,13.10
2019-05-19T22:42:35.051Z,13.10
2019-05-19T22:45:04.344Z,13.10
2019-05-19T22:47:32.772Z,13.10
2019-05-19T22:50:01.220Z,13.10
2019-05-19T22:52:29.698Z,13.10
2019-05-19T22:54:58.112Z,13.10
2019-05-19T22:57:26.523Z,13.00
2019-05-19T22:59:54.950Z,13.00
2019-05-19T23:02:23.376Z,13.00
2019-05-19T23:04:51.820Z,13.00
2019-05-19T23:07:20.240Z,12.90
2019-05-19T23:09:48.651Z,12.90
2019-05-19T23:12:17.068Z,13.00
2019-05-19T23:14:45.484Z,13.00
2019-05-19T23:17:13.908Z,13.00
2019-05-19T23:19:42.324Z,13.10
2019-05-19T23:22:10.736Z,13.10
2019-05-19T23:24:39.143Z,13.10
2019-05-19T23:27:07.563Z,13.10
2019-05-19T23:29:35.979Z,13.10
2019-05-19T23:32:07.285Z,13.00
2019-05-19T23:34:34.534Z,13.00
2019-05-19T23:37:02.946Z,13.00
2019-05-19T23:39:31.365Z,13.00
2019-05-19T23:41:59.776Z,13.00
2019-05-19T23:44:28.192Z,13.00
2019-05-19T23:46:56.607Z,12.90
2019-05-19T23:49:25.035Z,12.90
2019-05-19T23:51:53.447Z,12.90
2019-05-19T23:54:21.875Z,12.90
2019-05-19T23:56:50.281Z,12.80
2019-05-19T23:59:18.691Z,12.80
